Flight Track Log - Related Links

Times and Time Zones

All times are in EDT time to prevent confusion due to time zone crossing. See the GGA1 flight status page for this flight to view local times or setup timezone preferences in your user account.

Time Position Orientation Groundspeed Altitude Reporting Facility
EDT Latitude Longitude Course Direction KTS MPH feet Rate Location/Type
Fri 01:48:37 PM 31.2403 -81.4931 330° Northwest 239 275 3,900  Level Jacksonville Center
Fri 01:49:36 PM 31.2781 -81.5192 329° Northwest 178 205 5,600 1,750 Climbing Jacksonville Center
Fri 01:50:37 PM 31.3158 -81.5478 327° Northwest 166 191 7,400 1,900 Climbing Jacksonville Center
Fri 01:51:36 PM 31.3642 -81.5786 331° Northwest 171 197 9,400 2,067 Climbing Jacksonville Center
Fri 01:52:36 PM 31.4042 -81.6000 335° Northwest 171 197 11,500 2,050 Climbing Jacksonville Center
Fri 01:53:00 PM 31.4712 -81.5974 330° Northwest  Level FlightAware Approximate
Fri 01:53:36 PM 31.4503 -81.6311 330° Northwest 171 197 13,500  Level Jacksonville Center
Fri 01:54:37 PM 31.4883 -81.6575 329° Northwest 171 197 15,100 1,650 Climbing Jacksonville Center
Fri 01:55:36 PM 31.5364 -81.6836 335° Northwest 176 203 16,800 1,513 Climbing Jacksonville Center
Fri 01:56:36 PM 31.5869 -81.7194 329° Northwest 183 211 18,100 595 Climbing Jacksonville Center
Fri 01:57:37 PM 31.6311 -81.7678 317° Northwest 221 254 18,000 -50 Descending Jacksonville Center
Fri 01:58:36 PM 31.6881 -81.8331 316° Northwest 245 282 18,000  Level Jacksonville Center
Fri 01:59:36 PM 31.7408 -81.8933 316° Northwest 257 296 18,000  Level Jacksonville Center
Fri 02:00:37 PM 31.7914 -81.9492 317° Northwest 262 302 18,000  Level Jacksonville Center
Fri 02:01:36 PM 31.8503 -82.0169 316° Northwest 268 308 18,000  Level Jacksonville Center
Fri 02:02:36 PM 31.9050 -82.0800 316° Northwest 274 315 18,000  Level Jacksonville Center
Fri 02:03:37 PM 31.9556 -82.1336 318° Northwest 274 315 18,000  Level Jacksonville Center
Fri 02:04:36 PM 32.0164 -82.2042 315° West 274 315 18,000  Level Jacksonville Center
Fri 02:05:36 PM 32.0647 -82.2600 316° Northwest 274 315 18,000  Level Jacksonville Center
Fri 02:06:37 PM 32.1214 -82.3233 317° Northwest 279 321 18,000  Level Jacksonville Center
Fri 02:07:36 PM 32.1803 -82.3919 315° West 279 321 18,000  Level Jacksonville Center
Fri 02:08:37 PM 32.2325 -82.4531 315° West 279 321 18,000  Level Jacksonville Center
Fri 02:09:37 PM 32.2892 -82.5167 317° Northwest 279 321 18,000  Level Jacksonville Center
Fri 02:10:20 PM 32.3347 -82.5664 317° Northwest 281 323 18,000  Level Atlanta Center
Fri 02:11:20 PM 32.3897 -82.6319 315° West 275 316 18,000  Level Atlanta Center
Fri 02:12:20 PM 32.4447 -82.6975 315° West 280 322 18,000  Level Atlanta Center
Fri 02:13:20 PM 32.4997 -82.7631 315° West 280 322 18,000  Level Atlanta Center
Fri 02:14:20 PM 32.5567 -82.8264 317° Northwest 275 316 18,000  Level Atlanta Center
Fri 02:15:20 PM 32.6261 -82.8647 335° Northwest 275 316 18,000  Level Atlanta Center
Fri 02:16:20 PM 32.7033 -82.8811 350° North 275 316 18,000  Level Atlanta Center
Fri 02:17:20 PM 32.7808 -82.9072 344° North 275 316 18,000  Level Atlanta Center
Fri 02:18:20 PM 32.8561 -82.9333 344° North 275 316 18,000 -200 Level Atlanta Center
Fri 02:19:20 PM 32.9336 -82.9622 343° North 280 322 17,600 -700 Descending Atlanta Center
Fri 02:20:20 PM 33.0111 -82.9908 343° North 287 330 16,600 -1,100 Descending Atlanta Center
Fri 02:21:20 PM 33.0825 -83.0225 340° North 287 330 15,400 -1,150 Descending Atlanta Center
Fri 02:22:20 PM 33.1703 -83.0511 345° North 293 337 14,300 -1,250 Descending Atlanta Center
Fri 02:23:20 PM 33.2542 -83.0800 344° North 298 343 12,900 -1,450 Descending Atlanta Center
Fri 02:24:20 PM 33.3275 -83.1139 339° North 298 343 11,400 -1,000 Descending Atlanta Center
Fri 02:25:20 PM 33.4089 -83.1381 346° North 298 343 10,900 -650 Descending Atlanta Center
Fri 02:26:20 PM 33.4739 -83.1572 346° North 279 321 10,100 -1,200 Descending Atlanta Center
Fri 02:27:20 PM 33.5492 -83.1814 345° North 279 321 8,500 -1,600 Descending Atlanta Center
Fri 02:28:20 PM 33.6183 -83.2156 338° Northwest 279 321 6,900 -1,800 Descending Atlanta Center
Fri 02:29:20 PM 33.6731 -83.2825 314° West 279 321 4,900 -1,700 Descending Atlanta Center
Fri 02:30:20 PM 33.7172 -83.3469 309° West 266 306 3,500 -1,150 Descending Atlanta Center
Fri 02:31:20 PM 33.7778 -83.3639 347° North 223 257 2,600 -450 Descending Atlanta Center
Fri 02:32:20 PM 33.8342 -83.3661 358° North 208 239 2,600 -100 Level Atlanta Center
Fri 02:33:20 PM 33.8822 -83.3683 358° North 193 222 2,400 -300 Descending Atlanta Center
Fri 02:34:20 PM 33.9406 -83.3753 354° North 182 209 2,000 -400 Descending Atlanta Center
Fri 02:36:00 PM 33.9486 -83.3264 337° Northwest  Level Estimated
Fri 02:43:00 PM 33.9486 -83.3264 337° Northwest  Level Estimated
Fri 02:44:00 PM 33.9486 -83.3264 337° Northwest  Level Estimated
Fri 02:45:00 PM 33.9486 -83.3264 337° Northwest  Level Estimated

Login

Don't have an account? Register now (free) for customized features, flight alerts, and more!